sensor_id;sensor_type;location;lat;lon;timestamp;P1;durP1;ratioP1;P2;durP2;ratioP2
65667;SDS011;52369;52.542;13.232;2022-08-11T00:00:12;5.88;;;2.67;;
65667;SDS011;52369;52.542;13.232;2022-08-11T00:02:42;3.30;;;2.00;;
65667;SDS011;52369;52.542;13.232;2022-08-11T00:05:10;4.03;;;2.40;;
65667;SDS011;52369;52.542;13.232;2022-08-11T00:07:47;3.72;;;2.20;;
65667;SDS011;52369;52.542;13.232;2022-08-11T00:10:15;4.07;;;2.55;;
65667;SDS011;52369;52.542;13.232;2022-08-11T00:12:42;6.50;;;2.65;;
65667;SDS011;52369;52.542;13.232;2022-08-11T00:15:09;6.50;;;2.47;;
65667;SDS011;52369;52.542;13.232;2022-08-11T00:17:35;3.85;;;2.33;;
65667;SDS011;52369;52.542;13.232;2022-08-11T00:20:06;4.00;;;2.58;;
65667;SDS011;52369;52.542;13.232;2022-08-11T00:22:34;6.85;;;2.47;;
65667;SDS011;52369;52.542;13.232;2022-08-11T00:25:06;3.92;;;2.40;;
65667;SDS011;52369;52.542;13.232;2022-08-11T00:27:34;5.93;;;2.55;;
65667;SDS011;52369;52.542;13.232;2022-08-11T00:30:01;6.40;;;2.75;;
65667;SDS011;52369;52.542;13.232;2022-08-11T00:32:28;2.70;;;2.30;;
65667;SDS011;52369;52.542;13.232;2022-08-11T00:34:54;4.90;;;2.33;;
65667;SDS011;52369;52.542;13.232;2022-08-11T00:37:21;6.72;;;2.47;;
65667;SDS011;52369;52.542;13.232;2022-08-11T00:39:49;3.72;;;2.33;;
65667;SDS011;52369;52.542;13.232;2022-08-11T00:45:08;4.22;;;2.60;;
65667;SDS011;52369;52.542;13.232;2022-08-11T00:55:09;5.18;;;2.95;;
65667;SDS011;52369;52.542;13.232;2022-08-11T01:00:23;3.40;;;2.42;;
65667;SDS011;52369;52.542;13.232;2022-08-11T01:18:49;5.97;;;2.80;;
65667;SDS011;52369;52.542;13.232;2022-08-11T01:26:44;5.88;;;2.97;;
65667;SDS011;52369;52.542;13.232;2022-08-11T01:55:20;4.88;;;2.70;;
65667;SDS011;52369;52.542;13.232;2022-08-11T02:00:20;4.80;;;2.70;;
65667;SDS011;52369;52.542;13.232;2022-08-11T02:02:56;5.95;;;2.50;;
65667;SDS011;52369;52.542;13.232;2022-08-11T02:10:42;4.75;;;2.80;;
65667;SDS011;52369;52.542;13.232;2022-08-11T02:18:51;5.15;;;3.20;;
65667;SDS011;52369;52.542;13.232;2022-08-11T02:21:43;5.70;;;2.80;;
65667;SDS011;52369;52.542;13.232;2022-08-11T02:24:31;3.95;;;2.45;;
65667;SDS011;52369;52.542;13.232;2022-08-11T02:27:01;7.43;;;3.28;;
65667;SDS011;52369;52.542;13.232;2022-08-11T02:29:36;5.22;;;2.83;;
65667;SDS011;52369;52.542;13.232;2022-08-11T02:32:19;5.97;;;2.85;;
65667;SDS011;52369;52.542;13.232;2022-08-11T02:37:42;5.55;;;2.92;;
65667;SDS011;52369;52.542;13.232;2022-08-11T02:40:15;6.22;;;3.08;;
65667;SDS011;52369;52.542;13.232;2022-08-11T02:53:08;6.25;;;2.78;;
65667;SDS011;52369;52.542;13.232;2022-08-11T02:58:29;9.25;;;2.85;;
65667;SDS011;52369;52.542;13.232;2022-08-11T03:03:29;3.35;;;2.55;;
65667;SDS011;52369;52.542;13.232;2022-08-11T03:08:39;9.52;;;2.97;;
65667;SDS011;52369;52.542;13.232;2022-08-11T03:14:21;5.97;;;2.70;;
65667;SDS011;52369;52.542;13.232;2022-08-11T03:22:36;4.60;;;2.80;;
65667;SDS011;52369;52.542;13.232;2022-08-11T03:25:11;4.15;;;2.78;;
65667;SDS011;52369;52.542;13.232;2022-08-11T03:27:53;6.38;;;3.55;;
65667;SDS011;52369;52.542;13.232;2022-08-11T03:38:25;9.13;;;4.95;;
65667;SDS011;52369;52.542;13.232;2022-08-11T03:41:04;12.27;;;6.75;;
65667;SDS011;52369;52.542;13.232;2022-08-11T03:43:53;10.75;;;4.80;;
65667;SDS011;52369;52.542;13.232;2022-08-11T03:49:28;6.55;;;3.75;;
65667;SDS011;52369;52.542;13.232;2022-08-11T03:54:59;10.35;;;5.22;;
65667;SDS011;52369;52.542;13.232;2022-08-11T04:21:18;5.63;;;3.38;;
65667;SDS011;52369;52.542;13.232;2022-08-11T04:29:17;8.00;;;3.40;;
65667;SDS011;52369;52.542;13.232;2022-08-11T04:34:57;9.65;;;3.20;;
65667;SDS011;52369;52.542;13.232;2022-08-11T04:40:17;6.47;;;3.60;;
65667;SDS011;52369;52.542;13.232;2022-08-11T04:57:34;6.55;;;3.58;;
65667;SDS011;52369;52.542;13.232;2022-08-11T05:00:20;6.97;;;3.38;;
65667;SDS011;52369;52.542;13.232;2022-08-11T05:16:12;9.07;;;3.50;;
65667;SDS011;52369;52.542;13.232;2022-08-11T05:18:58;8.20;;;3.92;;
65667;SDS011;52369;52.542;13.232;2022-08-11T05:21:45;10.10;;;3.60;;
65667;SDS011;52369;52.542;13.232;2022-08-11T05:24:34;6.88;;;3.60;;
65667;SDS011;52369;52.542;13.232;2022-08-11T05:27:19;10.38;;;3.92;;
65667;SDS011;52369;52.542;13.232;2022-08-11T05:30:07;7.53;;;3.75;;
65667;SDS011;52369;52.542;13.232;2022-08-11T05:32:58;8.63;;;3.33;;
65667;SDS011;52369;52.542;13.232;2022-08-11T05:35:44;10.75;;;4.28;;
65667;SDS011;52369;52.542;13.232;2022-08-11T05:38:12;8.55;;;4.05;;
65667;SDS011;52369;52.542;13.232;2022-08-11T05:40:59;11.60;;;4.85;;
65667;SDS011;52369;52.542;13.232;2022-08-11T05:43:44;12.43;;;3.88;;
65667;SDS011;52369;52.542;13.232;2022-08-11T05:46:30;10.05;;;4.50;;
65667;SDS011;52369;52.542;13.232;2022-08-11T05:49:22;14.27;;;4.17;;
65667;SDS011;52369;52.542;13.232;2022-08-11T05:52:12;7.40;;;3.75;;
65667;SDS011;52369;52.542;13.232;2022-08-11T05:55:02;8.48;;;4.00;;
65667;SDS011;52369;52.542;13.232;2022-08-11T05:57:47;9.15;;;3.97;;
65667;SDS011;52369;52.542;13.232;2022-08-11T06:00:13;9.85;;;4.25;;
65667;SDS011;52369;52.542;13.232;2022-08-11T06:02:43;7.53;;;3.90;;
65667;SDS011;52369;52.542;13.232;2022-08-11T06:05:11;9.50;;;4.43;;
65667;SDS011;52369;52.542;13.232;2022-08-11T06:07:38;8.95;;;4.43;;
65667;SDS011;52369;52.542;13.232;2022-08-11T06:10:04;13.82;;;4.38;;
65667;SDS011;52369;52.542;13.232;2022-08-11T06:12:31;10.13;;;4.25;;
65667;SDS011;52369;52.542;13.232;2022-08-11T06:15:02;10.45;;;4.57;;
65667;SDS011;52369;52.542;13.232;2022-08-11T06:17:30;9.70;;;4.78;;
65667;SDS011;52369;52.542;13.232;2022-08-11T06:19:59;7.78;;;4.63;;
65667;SDS011;52369;52.542;13.232;2022-08-11T06:22:26;8.65;;;4.78;;
65667;SDS011;52369;52.542;13.232;2022-08-11T06:24:56;8.27;;;4.78;;
65667;SDS011;52369;52.542;13.232;2022-08-11T06:27:23;8.93;;;4.97;;
65667;SDS011;52369;52.542;13.232;2022-08-11T06:29:52;8.23;;;4.60;;
65667;SDS011;52369;52.542;13.232;2022-08-11T06:32:20;9.93;;;5.28;;
65667;SDS011;52369;52.542;13.232;2022-08-11T06:37:34;11.02;;;4.85;;
65667;SDS011;52369;52.542;13.232;2022-08-11T06:40:07;8.65;;;5.10;;
65667;SDS011;52369;52.542;13.232;2022-08-11T06:42:37;9.48;;;5.20;;
65667;SDS011;52369;52.542;13.232;2022-08-11T06:45:13;7.88;;;4.68;;
65667;SDS011;52369;52.542;13.232;2022-08-11T06:47:42;7.93;;;4.93;;
65667;SDS011;52369;52.542;13.232;2022-08-11T06:50:10;9.73;;;4.65;;
65667;SDS011;52369;52.542;13.232;2022-08-11T06:52:59;8.32;;;4.85;;
65667;SDS011;52369;52.542;13.232;2022-08-11T06:55:26;6.78;;;4.20;;
65667;SDS011;52369;52.542;13.232;2022-08-11T06:58:15;7.97;;;4.40;;
65667;SDS011;52369;52.542;13.232;2022-08-11T07:01:03;8.88;;;5.20;;
65667;SDS011;52369;52.542;13.232;2022-08-11T07:03:31;8.43;;;4.75;;
65667;SDS011;52369;52.542;13.232;2022-08-11T07:14:29;8.63;;;4.80;;
65667;SDS011;52369;52.542;13.232;2022-08-11T07:17:16;6.65;;;4.50;;
65667;SDS011;52369;52.542;13.232;2022-08-11T07:19:46;9.77;;;4.57;;
65667;SDS011;52369;52.542;13.232;2022-08-11T07:22:31;9.43;;;4.88;;
65667;SDS011;52369;52.542;13.232;2022-08-11T07:25:16;11.05;;;4.63;;
65667;SDS011;52369;52.542;13.232;2022-08-11T07:28:06;6.85;;;4.43;;
65667;SDS011;52369;52.542;13.232;2022-08-11T07:30:54;8.45;;;4.28;;
65667;SDS011;52369;52.542;13.232;2022-08-11T07:33:26;7.00;;;4.45;;
65667;SDS011;52369;52.542;13.232;2022-08-11T07:35:54;8.52;;;4.50;;
65667;SDS011;52369;52.542;13.232;2022-08-11T07:38:22;9.20;;;4.82;;
65667;SDS011;52369;52.542;13.232;2022-08-11T07:40:48;8.75;;;4.57;;
65667;SDS011;52369;52.542;13.232;2022-08-11T07:43:15;6.60;;;4.18;;
65667;SDS011;52369;52.542;13.232;2022-08-11T07:45:42;7.88;;;4.45;;
65667;SDS011;52369;52.542;13.232;2022-08-11T07:48:27;8.75;;;5.03;;
65667;SDS011;52369;52.542;13.232;2022-08-11T07:51:19;11.02;;;5.53;;
65667;SDS011;52369;52.542;13.232;2022-08-11T07:54:03;9.63;;;4.30;;
65667;SDS011;52369;52.542;13.232;2022-08-11T07:56:33;10.93;;;5.55;;
65667;SDS011;52369;52.542;13.232;2022-08-11T07:59:00;8.38;;;4.18;;
65667;SDS011;52369;52.542;13.232;2022-08-11T08:01:45;12.93;;;4.78;;
65667;SDS011;52369;52.542;13.232;2022-08-11T08:04:30;8.07;;;4.25;;
65667;SDS011;52369;52.542;13.232;2022-08-11T08:07:16;8.05;;;4.75;;
65667;SDS011;52369;52.542;13.232;2022-08-11T08:10:03;9.35;;;4.63;;
65667;SDS011;52369;52.542;13.232;2022-08-11T08:12:49;6.75;;;4.15;;
65667;SDS011;52369;52.542;13.232;2022-08-11T08:15:34;8.05;;;4.35;;
65667;SDS011;52369;52.542;13.232;2022-08-11T08:18:18;7.53;;;4.30;;
65667;SDS011;52369;52.542;13.232;2022-08-11T08:20:47;8.25;;;4.75;;
65667;SDS011;52369;52.542;13.232;2022-08-11T08:23:14;10.00;;;4.35;;
65667;SDS011;52369;52.542;13.232;2022-08-11T08:25:42;10.30;;;4.32;;
65667;SDS011;52369;52.542;13.232;2022-08-11T08:28:09;10.77;;;5.30;;
65667;SDS011;52369;52.542;13.232;2022-08-11T08:30:37;9.00;;;4.72;;
65667;SDS011;52369;52.542;13.232;2022-08-11T08:33:11;7.43;;;4.15;;
65667;SDS011;52369;52.542;13.232;2022-08-11T08:35:38;12.00;;;4.40;;
65667;SDS011;52369;52.542;13.232;2022-08-11T08:38:06;7.28;;;4.20;;
65667;SDS011;52369;52.542;13.232;2022-08-11T08:40:32;8.80;;;4.30;;
65667;SDS011;52369;52.542;13.232;2022-08-11T08:43:01;8.90;;;4.55;;
65667;SDS011;52369;52.542;13.232;2022-08-11T08:45:28;7.70;;;4.35;;
65667;SDS011;52369;52.542;13.232;2022-08-11T08:47:58;11.23;;;4.05;;
65667;SDS011;52369;52.542;13.232;2022-08-11T08:50:25;7.00;;;4.28;;
65667;SDS011;52369;52.542;13.232;2022-08-11T08:53:12;6.78;;;4.60;;
65667;SDS011;52369;52.542;13.232;2022-08-11T08:55:38;7.20;;;4.30;;
65667;SDS011;52369;52.542;13.232;2022-08-11T08:58:06;8.15;;;3.72;;
65667;SDS011;52369;52.542;13.232;2022-08-11T09:00:39;8.95;;;4.75;;
65667;SDS011;52369;52.542;13.232;2022-08-11T09:03:05;8.15;;;4.10;;
65667;SDS011;52369;52.542;13.232;2022-08-11T09:05:31;8.35;;;4.53;;
65667;SDS011;52369;52.542;13.232;2022-08-11T09:07:57;8.77;;;4.00;;
65667;SDS011;52369;52.542;13.232;2022-08-11T09:10:24;10.07;;;3.92;;
65667;SDS011;52369;52.542;13.232;2022-08-11T09:12:50;8.60;;;4.10;;
65667;SDS011;52369;52.542;13.232;2022-08-11T09:15:17;6.88;;;4.10;;
65667;SDS011;52369;52.542;13.232;2022-08-11T09:17:44;6.95;;;3.80;;
65667;SDS011;52369;52.542;13.232;2022-08-11T09:20:11;7.80;;;3.83;;
65667;SDS011;52369;52.542;13.232;2022-08-11T09:22:42;6.78;;;3.97;;
65667;SDS011;52369;52.542;13.232;2022-08-11T09:25:44;6.28;;;3.83;;
65667;SDS011;52369;52.542;13.232;2022-08-11T09:28:29;6.18;;;3.60;;
65667;SDS011;52369;52.542;13.232;2022-08-11T09:30:56;6.00;;;3.85;;
65667;SDS011;52369;52.542;13.232;2022-08-11T09:33:25;5.47;;;3.72;;
65667;SDS011;52369;52.542;13.232;2022-08-11T09:35:52;6.22;;;3.80;;
65667;SDS011;52369;52.542;13.232;2022-08-11T09:38:19;6.38;;;4.20;;
65667;SDS011;52369;52.542;13.232;2022-08-11T09:41:07;5.70;;;3.88;;
65667;SDS011;52369;52.542;13.232;2022-08-11T09:43:42;6.57;;;3.70;;
65667;SDS011;52369;52.542;13.232;2022-08-11T09:46:27;5.20;;;3.50;;
65667;SDS011;52369;52.542;13.232;2022-08-11T09:48:55;5.13;;;3.78;;
65667;SDS011;52369;52.542;13.232;2022-08-11T09:51:23;6.25;;;3.67;;
65667;SDS011;52369;52.542;13.232;2022-08-11T09:53:49;6.90;;;3.90;;
65667;SDS011;52369;52.542;13.232;2022-08-11T09:56:16;7.88;;;3.90;;
65667;SDS011;52369;52.542;13.232;2022-08-11T09:59:02;5.03;;;3.30;;
65667;SDS011;52369;52.542;13.232;2022-08-11T10:01:29;6.65;;;3.80;;
65667;SDS011;52369;52.542;13.232;2022-08-11T10:04:07;4.35;;;3.25;;
65667;SDS011;52369;52.542;13.232;2022-08-11T10:06:34;5.53;;;3.50;;
65667;SDS011;52369;52.542;13.232;2022-08-11T10:09:22;3.10;;;2.80;;
65667;SDS011;52369;52.542;13.232;2022-08-11T10:11:48;4.68;;;3.08;;
65667;SDS011;52369;52.542;13.232;2022-08-11T10:14:16;4.18;;;3.40;;
65667;SDS011;52369;52.542;13.232;2022-08-11T10:17:05;6.03;;;3.40;;
65667;SDS011;52369;52.542;13.232;2022-08-11T10:19:33;4.47;;;3.35;;
65667;SDS011;52369;52.542;13.232;2022-08-11T10:22:01;5.32;;;3.22;;
65667;SDS011;52369;52.542;13.232;2022-08-11T10:24:48;4.68;;;3.42;;
65667;SDS011;52369;52.542;13.232;2022-08-11T10:27:33;5.88;;;3.15;;
65667;SDS011;52369;52.542;13.232;2022-08-11T10:29:59;6.85;;;3.35;;
65667;SDS011;52369;52.542;13.232;2022-08-11T10:32:44;6.60;;;3.50;;
65667;SDS011;52369;52.542;13.232;2022-08-11T10:35:29;6.10;;;3.40;;
65667;SDS011;52369;52.542;13.232;2022-08-11T10:37:57;6.50;;;3.22;;
65667;SDS011;52369;52.542;13.232;2022-08-11T10:40:24;4.78;;;3.40;;
65667;SDS011;52369;52.542;13.232;2022-08-11T10:42:57;5.20;;;3.45;;
65667;SDS011;52369;52.542;13.232;2022-08-11T10:45:26;3.97;;;3.40;;
65667;SDS011;52369;52.542;13.232;2022-08-11T10:48:11;5.07;;;3.30;;
65667;SDS011;52369;52.542;13.232;2022-08-11T10:50:38;3.95;;;3.10;;
65667;SDS011;52369;52.542;13.232;2022-08-11T10:53:22;7.40;;;3.60;;
65667;SDS011;52369;52.542;13.232;2022-08-11T10:56:07;7.30;;;3.72;;
65667;SDS011;52369;52.542;13.232;2022-08-11T10:58:52;5.13;;;3.40;;
65667;SDS011;52369;52.542;13.232;2022-08-11T11:03:46;5.97;;;3.30;;
65667;SDS011;52369;52.542;13.232;2022-08-11T11:08:50;4.80;;;3.17;;
65667;SDS011;52369;52.542;13.232;2022-08-11T11:11:17;6.78;;;3.90;;
65667;SDS011;52369;52.542;13.232;2022-08-11T11:13:44;6.47;;;3.60;;
65667;SDS011;52369;52.542;13.232;2022-08-11T11:16:31;6.13;;;3.72;;
65667;SDS011;52369;52.542;13.232;2022-08-11T11:19:17;8.48;;;3.60;;
65667;SDS011;52369;52.542;13.232;2022-08-11T11:21:45;6.97;;;3.58;;
65667;SDS011;52369;52.542;13.232;2022-08-11T11:24:15;4.20;;;3.47;;
65667;SDS011;52369;52.542;13.232;2022-08-11T11:26:54;5.90;;;3.58;;
65667;SDS011;52369;52.542;13.232;2022-08-11T11:37:02;5.68;;;3.45;;
65667;SDS011;52369;52.542;13.232;2022-08-11T11:39:30;4.72;;;3.38;;
65667;SDS011;52369;52.542;13.232;2022-08-11T11:41:58;5.72;;;3.55;;
65667;SDS011;52369;52.542;13.232;2022-08-11T11:44:25;7.43;;;3.33;;
65667;SDS011;52369;52.542;13.232;2022-08-11T11:46:52;4.20;;;3.20;;
65667;SDS011;52369;52.542;13.232;2022-08-11T11:49:19;4.30;;;3.30;;
65667;SDS011;52369;52.542;13.232;2022-08-11T11:51:47;5.80;;;3.20;;
65667;SDS011;52369;52.542;13.232;2022-08-11T11:54:14;7.60;;;3.30;;
65667;SDS011;52369;52.542;13.232;2022-08-11T11:56:40;6.00;;;3.40;;
65667;SDS011;52369;52.542;13.232;2022-08-11T11:59:07;7.82;;;3.67;;
65667;SDS011;52369;52.542;13.232;2022-08-11T12:01:52;5.88;;;3.40;;
65667;SDS011;52369;52.542;13.232;2022-08-11T12:04:19;6.93;;;3.60;;
65667;SDS011;52369;52.542;13.232;2022-08-11T12:06:46;5.78;;;3.10;;
65667;SDS011;52369;52.542;13.232;2022-08-11T12:09:12;5.25;;;3.10;;
65667;SDS011;52369;52.542;13.232;2022-08-11T12:11:42;6.43;;;3.50;;
65667;SDS011;52369;52.542;13.232;2022-08-11T12:14:28;5.88;;;3.30;;
65667;SDS011;52369;52.542;13.232;2022-08-11T12:16:55;5.38;;;3.15;;
65667;SDS011;52369;52.542;13.232;2022-08-11T12:19:22;4.05;;;3.35;;
65667;SDS011;52369;52.542;13.232;2022-08-11T12:21:49;7.13;;;3.70;;
65667;SDS011;52369;52.542;13.232;2022-08-11T12:24:34;4.95;;;3.22;;
65667;SDS011;52369;52.542;13.232;2022-08-11T12:27:20;4.25;;;3.13;;
65667;SDS011;52369;52.542;13.232;2022-08-11T12:29:47;6.75;;;3.47;;
65667;SDS011;52369;52.542;13.232;2022-08-11T12:32:13;5.15;;;3.28;;
65667;SDS011;52369;52.542;13.232;2022-08-11T12:34:39;6.63;;;3.60;;
65667;SDS011;52369;52.542;13.232;2022-08-11T12:37:05;6.53;;;3.42;;
65667;SDS011;52369;52.542;13.232;2022-08-11T12:39:37;3.92;;;3.38;;
65667;SDS011;52369;52.542;13.232;2022-08-11T12:42:22;4.22;;;3.50;;
65667;SDS011;52369;52.542;13.232;2022-08-11T12:45:09;4.32;;;3.40;;
65667;SDS011;52369;52.542;13.232;2022-08-11T12:47:51;7.70;;;4.38;;
65667;SDS011;52369;52.542;13.232;2022-08-11T12:50:37;4.63;;;3.50;;
65667;SDS011;52369;52.542;13.232;2022-08-11T12:53:24;7.10;;;3.20;;
65667;SDS011;52369;52.542;13.232;2022-08-11T12:55:51;4.53;;;3.35;;
65667;SDS011;52369;52.542;13.232;2022-08-11T12:58:50;5.53;;;3.20;;
65667;SDS011;52369;52.542;13.232;2022-08-11T13:01:17;5.25;;;3.53;;
65667;SDS011;52369;52.542;13.232;2022-08-11T13:04:02;7.63;;;3.38;;
65667;SDS011;52369;52.542;13.232;2022-08-11T13:06:48;6.07;;;3.40;;
65667;SDS011;52369;52.542;13.232;2022-08-11T13:09:15;8.15;;;3.40;;
65667;SDS011;52369;52.542;13.232;2022-08-11T13:11:41;5.30;;;3.38;;
65667;SDS011;52369;52.542;13.232;2022-08-11T13:14:36;7.07;;;3.30;;
65667;SDS011;52369;52.542;13.232;2022-08-11T13:17:02;5.72;;;3.28;;
65667;SDS011;52369;52.542;13.232;2022-08-11T13:19:48;5.10;;;3.17;;
65667;SDS011;52369;52.542;13.232;2022-08-11T13:22:16;5.03;;;3.17;;
65667;SDS011;52369;52.542;13.232;2022-08-11T13:24:43;8.05;;;3.50;;
65667;SDS011;52369;52.542;13.232;2022-08-11T13:27:09;3.78;;;2.90;;
65667;SDS011;52369;52.542;13.232;2022-08-11T13:29:36;3.80;;;3.00;;
65667;SDS011;52369;52.542;13.232;2022-08-11T13:32:04;5.97;;;3.20;;
65667;SDS011;52369;52.542;13.232;2022-08-11T13:34:30;6.53;;;3.15;;
65667;SDS011;52369;52.542;13.232;2022-08-11T13:36:57;3.70;;;3.00;;
65667;SDS011;52369;52.542;13.232;2022-08-11T13:39:25;5.03;;;2.75;;
65667;SDS011;52369;52.542;13.232;2022-08-11T13:41:52;7.15;;;3.15;;
65667;SDS011;52369;52.542;13.232;2022-08-11T13:44:20;4.78;;;3.10;;
65667;SDS011;52369;52.542;13.232;2022-08-11T13:46:47;4.22;;;3.20;;
65667;SDS011;52369;52.542;13.232;2022-08-11T13:49:14;4.35;;;2.78;;
65667;SDS011;52369;52.542;13.232;2022-08-11T13:51:41;3.85;;;3.28;;
65667;SDS011;52369;52.542;13.232;2022-08-11T13:54:08;3.67;;;3.17;;
65667;SDS011;52369;52.542;13.232;2022-08-11T13:56:38;5.25;;;2.92;;
65667;SDS011;52369;52.542;13.232;2022-08-11T13:59:07;3.70;;;2.95;;
65667;SDS011;52369;52.542;13.232;2022-08-11T14:01:36;5.07;;;2.95;;
65667;SDS011;52369;52.542;13.232;2022-08-11T14:04:10;5.70;;;3.10;;
65667;SDS011;52369;52.542;13.232;2022-08-11T14:06:37;4.13;;;3.08;;
65667;SDS011;52369;52.542;13.232;2022-08-11T14:09:08;4.88;;;2.95;;
65667;SDS011;52369;52.542;13.232;2022-08-11T14:11:35;4.22;;;2.75;;
65667;SDS011;52369;52.542;13.232;2022-08-11T14:14:22;3.88;;;3.00;;
65667;SDS011;52369;52.542;13.232;2022-08-11T14:16:49;4.43;;;2.50;;
65667;SDS011;52369;52.542;13.232;2022-08-11T14:19:16;4.05;;;2.80;;
65667;SDS011;52369;52.542;13.232;2022-08-11T14:21:45;5.07;;;3.00;;
65667;SDS011;52369;52.542;13.232;2022-08-11T14:24:30;4.95;;;2.63;;
65667;SDS011;52369;52.542;13.232;2022-08-11T14:26:57;3.55;;;2.65;;
65667;SDS011;52369;52.542;13.232;2022-08-11T14:29:25;5.47;;;2.75;;
65667;SDS011;52369;52.542;13.232;2022-08-11T14:31:53;3.25;;;2.47;;
65667;SDS011;52369;52.542;13.232;2022-08-11T14:34:20;5.20;;;2.83;;
65667;SDS011;52369;52.542;13.232;2022-08-11T14:36:51;4.63;;;2.80;;
65667;SDS011;52369;52.542;13.232;2022-08-11T14:39:18;5.10;;;2.95;;
65667;SDS011;52369;52.542;13.232;2022-08-11T14:41:47;4.60;;;2.90;;
65667;SDS011;52369;52.542;13.232;2022-08-11T14:44:33;4.22;;;2.70;;
65667;SDS011;52369;52.542;13.232;2022-08-11T14:47:18;5.32;;;2.90;;
65667;SDS011;52369;52.542;13.232;2022-08-11T14:49:45;5.30;;;2.45;;
65667;SDS011;52369;52.542;13.232;2022-08-11T14:52:12;4.22;;;2.50;;
65667;SDS011;52369;52.542;13.232;2022-08-11T14:54:41;5.00;;;2.47;;
65667;SDS011;52369;52.542;13.232;2022-08-11T14:57:27;5.13;;;2.50;;
65667;SDS011;52369;52.542;13.232;2022-08-11T14:59:54;4.25;;;2.55;;
65667;SDS011;52369;52.542;13.232;2022-08-11T15:02:22;3.03;;;2.58;;
65667;SDS011;52369;52.542;13.232;2022-08-11T15:05:07;4.50;;;2.65;;
65667;SDS011;52369;52.542;13.232;2022-08-11T15:07:33;3.85;;;2.17;;
65667;SDS011;52369;52.542;13.232;2022-08-11T15:10:02;3.58;;;2.83;;
65667;SDS011;52369;52.542;13.232;2022-08-11T15:12:28;9.52;;;2.75;;
65667;SDS011;52369;52.542;13.232;2022-08-11T15:14:55;4.88;;;2.65;;
65667;SDS011;52369;52.542;13.232;2022-08-11T15:17:40;4.10;;;2.58;;
65667;SDS011;52369;52.542;13.232;2022-08-11T15:20:13;2.90;;;2.10;;
65667;SDS011;52369;52.542;13.232;2022-08-11T15:22:59;4.35;;;2.28;;
65667;SDS011;52369;52.542;13.232;2022-08-11T15:25:45;6.65;;;2.35;;
65667;SDS011;52369;52.542;13.232;2022-08-11T15:28:13;5.28;;;2.40;;
65667;SDS011;52369;52.542;13.232;2022-08-11T15:30:59;5.55;;;2.65;;
65667;SDS011;52369;52.542;13.232;2022-08-11T15:33:46;6.00;;;2.25;;
65667;SDS011;52369;52.542;13.232;2022-08-11T15:36:33;3.97;;;2.05;;
65667;SDS011;52369;52.542;13.232;2022-08-11T15:39:20;10.90;;;4.22;;
65667;SDS011;52369;52.542;13.232;2022-08-11T15:41:50;4.47;;;2.55;;
65667;SDS011;52369;52.542;13.232;2022-08-11T15:44:36;4.72;;;2.45;;
65667;SDS011;52369;52.542;13.232;2022-08-11T15:47:25;4.40;;;1.85;;
65667;SDS011;52369;52.542;13.232;2022-08-11T15:49:52;3.03;;;1.95;;
65667;SDS011;52369;52.542;13.232;2022-08-11T15:52:23;2.80;;;1.92;;
65667;SDS011;52369;52.542;13.232;2022-08-11T15:54:51;5.57;;;2.50;;
65667;SDS011;52369;52.542;13.232;2022-08-11T15:57:18;3.15;;;2.55;;
65667;SDS011;52369;52.542;13.232;2022-08-11T16:00:04;5.18;;;2.17;;
65667;SDS011;52369;52.542;13.232;2022-08-11T16:02:49;2.70;;;1.95;;
65667;SDS011;52369;52.542;13.232;2022-08-11T16:05:19;4.53;;;1.95;;
65667;SDS011;52369;52.542;13.232;2022-08-11T16:07:46;4.30;;;2.13;;
65667;SDS011;52369;52.542;13.232;2022-08-11T16:10:14;4.38;;;2.00;;
65667;SDS011;52369;52.542;13.232;2022-08-11T16:15:39;2.47;;;1.90;;
65667;SDS011;52369;52.542;13.232;2022-08-11T16:18:30;2.63;;;2.08;;
65667;SDS011;52369;52.542;13.232;2022-08-11T16:21:08;7.55;;;2.47;;
65667;SDS011;52369;52.542;13.232;2022-08-11T16:23:35;4.88;;;2.10;;
65667;SDS011;52369;52.542;13.232;2022-08-11T16:26:02;4.53;;;1.92;;
65667;SDS011;52369;52.542;13.232;2022-08-11T16:28:28;5.55;;;2.35;;
65667;SDS011;52369;52.542;13.232;2022-08-11T16:30:56;4.90;;;2.20;;
65667;SDS011;52369;52.542;13.232;2022-08-11T16:33:23;4.53;;;2.28;;
65667;SDS011;52369;52.542;13.232;2022-08-11T16:35:50;3.20;;;1.70;;
65667;SDS011;52369;52.542;13.232;2022-08-11T16:38:35;4.30;;;2.15;;
65667;SDS011;52369;52.542;13.232;2022-08-11T16:41:07;2.55;;;1.70;;
65667;SDS011;52369;52.542;13.232;2022-08-11T16:43:37;3.00;;;2.20;;
65667;SDS011;52369;52.542;13.232;2022-08-11T16:46:23;2.90;;;1.67;;
65667;SDS011;52369;52.542;13.232;2022-08-11T16:49:16;3.40;;;2.05;;
65667;SDS011;52369;52.542;13.232;2022-08-11T16:51:43;8.77;;;3.78;;
65667;SDS011;52369;52.542;13.232;2022-08-11T16:54:09;4.65;;;2.17;;
65667;SDS011;52369;52.542;13.232;2022-08-11T16:56:37;4.63;;;2.15;;
65667;SDS011;52369;52.542;13.232;2022-08-11T16:59:06;5.47;;;1.83;;
65667;SDS011;52369;52.542;13.232;2022-08-11T17:04:13;4.90;;;2.03;;
65667;SDS011;52369;52.542;13.232;2022-08-11T17:06:59;3.45;;;2.00;;
65667;SDS011;52369;52.542;13.232;2022-08-11T17:09:58;5.10;;;2.00;;
65667;SDS011;52369;52.542;13.232;2022-08-11T17:12:43;2.10;;;1.77;;
65667;SDS011;52369;52.542;13.232;2022-08-11T17:15:29;2.63;;;1.80;;
65667;SDS011;52369;52.542;13.232;2022-08-11T17:18:15;4.75;;;1.80;;
65667;SDS011;52369;52.542;13.232;2022-08-11T17:21:02;3.53;;;1.98;;
65667;SDS011;52369;52.542;13.232;2022-08-11T17:23:28;2.90;;;1.90;;
65667;SDS011;52369;52.542;13.232;2022-08-11T17:26:13;4.68;;;2.10;;
65667;SDS011;52369;52.542;13.232;2022-08-11T17:28:40;3.65;;;2.08;;
65667;SDS011;52369;52.542;13.232;2022-08-11T17:31:06;6.00;;;2.55;;
65667;SDS011;52369;52.542;13.232;2022-08-11T17:33:52;4.90;;;2.00;;
65667;SDS011;52369;52.542;13.232;2022-08-11T17:36:38;3.55;;;1.98;;
65667;SDS011;52369;52.542;13.232;2022-08-11T17:39:06;3.63;;;2.47;;
65667;SDS011;52369;52.542;13.232;2022-08-11T17:41:33;2.83;;;2.38;;
65667;SDS011;52369;52.542;13.232;2022-08-11T17:44:18;4.07;;;2.70;;
65667;SDS011;52369;52.542;13.232;2022-08-11T17:47:05;6.18;;;1.85;;
65667;SDS011;52369;52.542;13.232;2022-08-11T17:49:50;5.40;;;2.28;;
65667;SDS011;52369;52.542;13.232;2022-08-11T17:52:17;4.00;;;2.00;;
65667;SDS011;52369;52.542;13.232;2022-08-11T17:55:02;5.30;;;2.25;;
65667;SDS011;52369;52.542;13.232;2022-08-11T17:57:47;6.03;;;2.63;;
65667;SDS011;52369;52.542;13.232;2022-08-11T18:00:33;6.30;;;2.30;;
65667;SDS011;52369;52.542;13.232;2022-08-11T18:02:59;3.30;;;2.45;;
65667;SDS011;52369;52.542;13.232;2022-08-11T18:05:45;4.20;;;1.88;;
65667;SDS011;52369;52.542;13.232;2022-08-11T18:08:13;9.85;;;4.95;;
65667;SDS011;52369;52.542;13.232;2022-08-11T18:10:57;6.50;;;3.08;;
65667;SDS011;52369;52.542;13.232;2022-08-11T18:13:43;7.93;;;3.35;;
65667;SDS011;52369;52.542;13.232;2022-08-11T18:16:28;5.80;;;2.42;;
65667;SDS011;52369;52.542;13.232;2022-08-11T18:19:13;7.25;;;3.38;;
65667;SDS011;52369;52.542;13.232;2022-08-11T18:22:08;8.77;;;3.85;;
65667;SDS011;52369;52.542;13.232;2022-08-11T18:24:57;5.28;;;3.40;;
65667;SDS011;52369;52.542;13.232;2022-08-11T18:27:43;18.90;;;11.77;;
65667;SDS011;52369;52.542;13.232;2022-08-11T18:30:30;5.43;;;3.30;;
65667;SDS011;52369;52.542;13.232;2022-08-11T18:33:16;9.35;;;5.75;;
65667;SDS011;52369;52.542;13.232;2022-08-11T18:36:03;7.40;;;3.17;;
65667;SDS011;52369;52.542;13.232;2022-08-11T18:38:48;11.18;;;5.95;;
65667;SDS011;52369;52.542;13.232;2022-08-11T18:41:34;9.82;;;5.97;;
65667;SDS011;52369;52.542;13.232;2022-08-11T18:44:19;7.88;;;3.47;;
65667;SDS011;52369;52.542;13.232;2022-08-11T18:47:07;6.35;;;2.80;;